Thalassa — FNFP — position and weather

sailwx.info

Track history (hours):
 
Tides and Currents Weather Stations Pressure Air Temp Water Temp Dewpoint Dewpoint Depression Visibility Wind Speed Wind Dir Waves Ship Positions

Oceanographic research ship Thalassa (France & Spain)

Detailed information on ship capabilities available from University of Delaware's Ocean Information Center.

Last reported at 2017-Apr-29 08:29 UTC. Time now 2017-Apr-30 20:43 UTC.
Position N 45°02' W 001°45'.

Length 74 m; beam 15 m.

Type: Ship. MMSI: 227297000.

Date/timePositionNaut miles runAvg speedWind from/ knotsBaromVisibWave heightAir tempDewpointWater temp
2017-Apr-29 08:29N 45°02' W 001°45'1010.1
2017-Apr-29 07:28N 45°03' W 001°30'2 1.8
2017-Apr-29 06:26N 45°03' W 001°33'1 3.2
2017-Apr-29 05:59N 45°03' W 001°31'610.2
2017-Apr-29 05:25N 45°04' W 001°22'410.1
2017-Apr-29 05:00N 45°04' W 001°17'3 6.6
2017-Apr-29 04:30N 45°01' W 001°15'4 7.4
2017-Apr-29 04:00N 44°57' W 001°16'4 7.4
2017-Apr-29 03:30N 44°54' W 001°17'1 2.8
2017-Apr-29 03:00N 44°52' W 001°17'3 5.2
2017-Apr-29 02:30N 44°52' W 001°21'5 9.6
2017-Apr-29 02:00N 44°52' W 001°27'3 5.4
2017-Apr-29 01:30N 44°52' W 001°31'3 5.6
2017-Apr-29 01:00N 44°52' W 001°35'611.7
2017-Apr-29 00:30N 44°52' W 001°44'3 3.9
2017-Apr-28 23:50N 44°52' W 001°47'1 2.5
2017-Apr-28 23:27N 44°52' W 001°48'8 8.5
2017-Apr-28 22:28N 44°52' W 002°00'8 1.2
2017-Apr-28 15:34N 44°52' W 001°49'110.5
2017-Apr-28 15:30N 44°52' W 001°48'510.3
2017-Apr-28 14:59N 44°52' W 001°40'1010.3
2017-Apr-28 14:00N 44°52' W 001°26'3 6.7
2017-Apr-28 13:30N 44°52' W 001°21'3 5.1
2017-Apr-28 13:00N 44°52' W 001°25'3 5.7
2017-Apr-28 12:31N 44°52' W 001°29'5 9.8
2017-Apr-28 12:00N 44°52' W 001°22'4 8.5
2017-Apr-28 11:30N 44°51' W 001°16'612.1
2017-Apr-28 11:00N 44°45' W 001°17'510.7
2017-Apr-28 10:30N 44°40' W 001°19'510.0
2017-Apr-28 10:00N 44°40' W 001°26'510.0
2017-Apr-28 09:30N 44°40' W 001°33'510.0
2017-Apr-28 09:00N 44°40' W 001°40'5 9.6
2017-Apr-28 08:27N 44°40' W 001°47'2 4.1
2017-Apr-28 07:56N 44°40' W 001°45'2 5.0
2017-Apr-28 07:28N 44°40' W 001°41'0 0.1
2017-Apr-28 07:00N 44°40' W 001°41'12 1.0
2017-Apr-27 18:57N 44°28' W 001°37'3 6.3
2017-Apr-27 18:30N 44°28' W 001°41'6 2.6
2017-Apr-27 16:00N 44°28' W 001°50'17 1.6
2017-Apr-27 05:00N 44°16' W 001°32'1 0.8
2017-Apr-27 03:38N 44°17' W 001°31'5 3.2
2017-Apr-27 01:56N 44°20' W 001°25'2 3.5
2017-Apr-27 01:30N 44°21' W 001°27'3 5.6
2017-Apr-27 01:01N 44°23' W 001°28'2 4.5
2017-Apr-27 00:30N 44°25' W 001°26'2 4.7
2017-Apr-27 00:01N 44°26' W 001°23'2 4.3
2017-Apr-26 23:30N 44°27' W 001°21'2 4.0
2017-Apr-26 23:00N 44°28' W 001°18'1 2.2
2017-Apr-26 22:31N 44°28' W 001°20'3 6.5
2017-Apr-26 22:00N 44°28' W 001°24'3 6.4
2017-Apr-26 21:30N 44°28' W 001°29'1 2.0
2017-Apr-26 21:01N 44°28' W 001°30'2 3.8
2017-Apr-26 20:30N 44°28' W 001°33'4 7.4
2017-Apr-26 20:01N 44°28' W 001°38'4 7.4
2017-Apr-26 19:30N 44°28' W 001°43'1 0.6
2017-Apr-26 18:36N 44°28' W 001°44'5 9.4
2017-Apr-26 18:02N 44°28' W 001°36'010.3
2017-Apr-26 18:00N 44°28' W 001°36'510.3
2017-Apr-26 17:31N 44°28' W 001°29'1 2.5
2017-Apr-26 17:01N 44°28' W 001°27'2 3.6
2017-Apr-26 16:30N 44°28' W 001°29'2 4.3
2017-Apr-26 16:00N 44°28' W 001°32'1 1.1
2017-Apr-26 15:30N 44°28' W 001°33'510.3
2017-Apr-26 15:00N 44°28' W 001°26'4 8.7
2017-Apr-26 14:30N 44°28' W 001°20'5 4.9
2017-Apr-26 13:30N 44°28' W 001°27'1 2.6
2017-Apr-26 13:00N 44°28' W 001°25'5 9.7
2017-Apr-26 12:30N 44°28' W 001°18'5 9.2
2017-Apr-26 12:01N 44°26' W 001°24'611.3
2017-Apr-26 11:27N 44°20' W 001°27'4 8.9
2017-Apr-26 11:00N 44°16' W 001°28'5 4.8
2017-Apr-26 09:54N 44°16' W 001°21'8 2.1
2017-Apr-26 05:54N 44°16' W 001°32'26 1.4
2017-Apr-25 10:43N 43°52' W 001°47'0 1.8
2017-Apr-25 10:29N 43°52' W 001°46'2 4.3
2017-Apr-25 09:59N 43°52' W 001°43'2 4.8
2017-Apr-25 09:30N 43°52' W 001°40'2 3.3
2017-Apr-25 09:00N 43°52' W 001°42'20 3.9
2017-Apr-25 03:53N 43°49' W 002°10'2 4.4
2017-Apr-25 03:31N 43°48' W 002°08'6 5.0
2017-Apr-25 02:24N 43°44' W 002°03'6 2.5
2017-Apr-25 00:04N 43°39' W 001°57'0 7.9
2017-Apr-25 00:00N 43°39' W 001°57'5 8.4
2017-Apr-24 23:28N 43°40' W 001°50'4 8.3
2017-Apr-24 22:58N 43°40' W 001°45'1 2.2
2017-Apr-24 22:30N 43°40' W 001°43'0 0.4
2017-Apr-24 22:01N 43°40' W 001°43'3 6.9
2017-Apr-24 21:30N 43°40' W 001°38'4 8.0
2017-Apr-24 21:00N 43°40' W 001°33'4 7.1
2017-Apr-24 20:31N 43°40' W 001°28'0 0.5
2017-Apr-24 20:00N 43°40' W 001°28'1 1.9
2017-Apr-24 19:30N 43°40' W 001°29'3 5.3
2017-Apr-24 19:00N 43°40' W 001°33'2 3.8
2017-Apr-24 18:30N 43°40' W 001°31'2 4.8
2017-Apr-24 18:00N 43°40' W 001°27'5 9.7
2017-Apr-24 17:30N 43°40' W 001°34'510.3
2017-Apr-24 17:01N 43°40' W 001°41'510.2
2017-Apr-24 16:30N 43°40' W 001°48'510.1
2017-Apr-24 16:00N 43°40' W 001°55'510.2
2017-Apr-24 15:30N 43°40' W 002°02'510.4
2017-Apr-24 15:00N 43°40' W 002°09'510.2
2017-Apr-24 14:30N 43°40' W 002°16'1010.3
2017-Apr-24 13:30N 43°40' W 002°31'510.2
2017-Apr-24 13:00N 43°40' W 002°38'3 6.0
2017-Apr-24 12:27N 43°40' W 002°42'2 3.4
2017-Apr-24 12:00N 43°40' W 002°40'2 4.7
2017-Apr-24 11:29N 43°40' W 002°37'0 1.0
2017-Apr-24 11:00N 43°40' W 002°36'510.3
2017-Apr-24 10:31N 43°40' W 002°43'16 1.0
2017-Apr-23 18:07N 43°42' W 002°21'111.0
2017-Apr-23 18:00N 43°43' W 002°22'511.1
2017-Apr-23 17:30N 43°48' W 002°26'511.0
2017-Apr-23 17:00N 43°53' W 002°29'611.1
2017-Apr-23 16:30N 43°58' W 002°33'510.7
2017-Apr-23 16:00N 44°02' W 002°36'5 9.9
2017-Apr-23 15:30N 44°07' W 002°40'13710.8
2017-Apr-23 02:55N 46°13' W 003°53'812.1
2017-Apr-23 02:16N 46°21' W 003°56'1712.3
2017-Apr-23 00:55N 46°36' W 004°04'712.3
2017-Apr-23 00:19N 46°43' W 004°08'6212.5
2017-Apr-22 19:18N 47°43' W 004°37'412.6
2017-Apr-22 19:00N 47°46' W 004°39'612.8
2017-Apr-22 18:30N 47°52' W 004°41'612.7
2017-Apr-22 18:01N 47°58' W 004°44'612.2
2017-Apr-22 17:31N 48°04' W 004°46'612.9
2017-Apr-22 17:01N 48°11' W 004°43'612.4
2017-Apr-22 16:30N 48°16' W 004°39'3 5.6
2017-Apr-22 16:01N 48°18' W 004°36'0 0.1
2017-Apr-22 15:30N 48°18' W 004°36'0 0.0
2017-Apr-22 15:00N 48°18' W 004°36'0 0.0
2017-Apr-22 14:30N 48°18' W 004°36'0 0.0
2017-Apr-22 13:30N 48°18' W 004°36'0 0.0
2017-Apr-22 13:00N 48°18' W 004°36'0 0.0
2017-Apr-22 12:30N 48°18' W 004°36'0 0.0
2017-Apr-22 12:00N 48°18' W 004°36'0 0.0
2017-Apr-22 11:30N 48°18' W 004°36'0 0.0
2017-Apr-22 11:00N 48°18' W 004°36'0 0.0
2017-Apr-22 10:30N 48°18' W 004°36'0 0.0
2017-Apr-22 10:00N 48°18' W 004°36'0 0.0
2017-Apr-22 09:30N 48°18' W 004°36'0 0.0
2017-Apr-22 09:00N 48°18' W 004°36'0 0.0
2017-Apr-22 08:30N 48°18' W 004°36'0 0.0
2017-Apr-22 08:00N 48°18' W 004°36'0 0.0
2017-Apr-22 07:30N 48°18' W 004°36'0 0.2
2017-Apr-22 07:00N 48°18' W 004°36'4 7.9
2017-Apr-22 06:30N 48°21' W 004°33'3 6.2
2017-Apr-22 06:01N 48°23' W 004°29'0 0.0
2017-Apr-22 05:31N 48°23' W 004°29'0 0.0
2017-Apr-22 04:58N 48°23' W 004°29'0 0.0
2017-Apr-22 04:28N 48°23' W 004°29'0 0.0
2017-Apr-22 03:58N 48°23' W 004°29'0 0.0
2017-Apr-22 03:28N 48°23' W 004°29'0 0.0
2017-Apr-22 02:58N 48°23' W 004°29'0 0.0
2017-Apr-22 02:28N 48°23' W 004°29'0 0.0
2017-Apr-22 01:58N 48°23' W 004°29'0 0.0
2017-Apr-22 01:28N 48°23' W 004°29'0 0.0
2017-Apr-22 00:58N 48°23' W 004°29'0 0.0
2017-Apr-22 00:28N 48°23' W 004°29'0 0.0
2017-Apr-21 23:58N 48°23' W 004°29'0 0.0
2017-Apr-21 23:28N 48°23' W 004°29'0 0.0
2017-Apr-21 22:58N 48°23' W 004°29'0 0.0
2017-Apr-21 22:28N 48°23' W 004°29'0 0.0
2017-Apr-21 21:58N 48°23' W 004°29'0 0.0
2017-Apr-21 21:28N 48°23' W 004°29'0 0.0
2017-Apr-21 20:58N 48°23' W 004°29'0 0.0
2017-Apr-21 20:28N 48°23' W 004°29'0 0.0
2017-Apr-21 19:58N 48°23' W 004°29'0 0.0
2017-Apr-21 19:28N 48°23' W 004°29'0 0.0
2017-Apr-21 18:58N 48°23' W 004°29'0 0.0
2017-Apr-21 18:28N 48°23' W 004°29'0 0.0
2017-Apr-21 17:58N 48°23' W 004°29'0 0.0
2017-Apr-21 17:28N 48°23' W 004°29'0 0.0
2017-Apr-21 16:58N 48°23' W 004°29'0 0.0
2017-Apr-21 16:28N 48°23' W 004°29'0 0.0
2017-Apr-21 15:58N 48°23' W 004°29'0 0.0
2017-Apr-21 15:28N 48°23' W 004°29'0 0.0
2017-Apr-21 14:58N 48°23' W 004°29'0 0.0
2017-Apr-21 14:28N 48°23' W 004°29'0 0.0
2017-Apr-21 13:28N 48°23' W 004°29'0 0.0
2017-Apr-21 12:58N 48°23' W 004°29'0 0.0
2017-Apr-21 12:28N 48°23' W 004°29'0 0.0
2017-Apr-21 11:58N 48°23' W 004°29'0 0.0
2017-Apr-21 11:28N 48°23' W 004°29'0 0.0
2017-Apr-21 10:58N 48°23' W 004°29'0 0.0
2017-Apr-21 10:28N 48°23' W 004°29'0 0.0
2017-Apr-21 09:58N 48°23' W 004°29'0 0.0
2017-Apr-21 09:28N 48°23' W 004°29'0 0.0
2017-Apr-21 08:58N 48°23' W 004°29'0 0.0
2017-Apr-21 08:28N 48°23' W 004°29'0 0.0
2017-Apr-21 07:58N 48°23' W 004°29'0 0.0
2017-Apr-21 07:28N 48°23' W 004°29'0 0.0
2017-Apr-21 06:58N 48°23' W 004°29'0 0.0
2017-Apr-21 06:28N 48°23' W 004°29'0 0.0
2017-Apr-21 05:58N 48°23' W 004°29'0 0.0
2017-Apr-21 05:28N 48°23' W 004°29'0 0.0
2017-Apr-21 05:01N 48°23' W 004°29'0 0.0
2017-Apr-21 04:28N 48°23' W 004°29'0 0.0
2017-Apr-21 03:58N 48°23' W 004°29'0 0.0
2017-Apr-21 03:28N 48°23' W 004°29'0 0.0
2017-Apr-21 03:01N 48°23' W 004°29'0 0.0
2017-Apr-21 02:28N 48°23' W 004°29'0 0.0
2017-Apr-21 02:01N 48°23' W 004°29'0 0.0
2017-Apr-21 01:31N 48°23' W 004°29'0 0.0
2017-Apr-21 01:01N 48°23' W 004°29'0 0.0
2017-Apr-21 00:30N 48°23' W 004°29'0 0.0
2017-Apr-21 00:00N 48°23' W 004°29'0 0.0
2017-Apr-20 23:30N 48°23' W 004°29'0 0.0
2017-Apr-20 23:00N 48°23' W 004°29'0 0.0
2017-Apr-20 22:30N 48°23' W 004°29'0 0.0
2017-Apr-20 22:01N 48°23' W 004°29'0 0.0
2017-Apr-20 21:30N 48°23' W 004°29'0 0.0
2017-Apr-20 21:00N 48°23' W 004°29'0 0.0
2017-Apr-20 20:31N 48°23' W 004°29'0 0.0
2017-Apr-20 20:00N 48°23' W 004°29'0 0.0
2017-Apr-20 19:30N 48°23' W 004°29'0 0.0
2017-Apr-20 19:01N 48°23' W 004°29'0 0.0
2017-Apr-20 18:30N 48°23' W 004°29'0 0.0
2017-Apr-20 18:00N 48°23' W 004°29'0 0.0
2017-Apr-20 17:30N 48°23' W 004°29'0 0.0
2017-Apr-20 17:01N 48°23' W 004°29'0 0.0
2017-Apr-20 16:30N 48°23' W 004°29'0 0.0
2017-Apr-20 16:00N 48°23' W 004°29'0 0.0
2017-Apr-20 15:30N 48°23' W 004°29'0 0.0
2017-Apr-20 15:00N 48°23' W 004°29'0 0.0
2017-Apr-20 14:30N 48°23' W 004°29'0 0.0
2017-Apr-20 13:30N 48°23' W 004°29'0 0.0
2017-Apr-20 13:00N 48°23' W 004°29'0 0.0
2017-Apr-20 12:30N 48°23' W 004°29'0 0.0
2017-Apr-20 12:00N 48°23' W 004°29'0 0.0
2017-Apr-20 11:30N 48°23' W 004°29'0 0.0
2017-Apr-20 11:00N 48°23' W 004°29'0 0.0
2017-Apr-20 10:30N 48°23' W 004°29'0 0.0
2017-Apr-20 10:00N 48°23' W 004°29'0 0.0
2017-Apr-20 09:30N 48°23' W 004°29'0 0.0
2017-Apr-20 09:00N 48°23' W 004°29'0 0.0
2017-Apr-20 08:30N 48°23' W 004°29'0 0.0
2017-Apr-20 08:00N 48°23' W 004°29'0 0.0
2017-Apr-20 07:30N 48°23' W 004°29'0 0.0
2017-Apr-20 07:00N 48°23' W 004°29'0 0.0
2017-Apr-20 06:30N 48°23' W 004°29'0 0.0
2017-Apr-20 06:00N 48°23' W 004°29'0 0.0
2017-Apr-20 05:30N 48°23' W 004°29'0 0.0
2017-Apr-20 05:00N 48°23' W 004°29'0 0.0
2017-Apr-20 04:30N 48°23' W 004°29'0 0.0
2017-Apr-20 04:00N 48°23' W 004°29'0 0.0
2017-Apr-20 03:30N 48°23' W 004°29'0 0.0
2017-Apr-20 03:00N 48°23' W 004°29'0 0.0
2017-Apr-20 02:30N 48°23' W 004°29'0 0.0
2017-Apr-20 02:00N 48°23' W 004°29'0 0.0
2017-Apr-20 01:30N 48°23' W 004°29'0 0.0
2017-Apr-20 01:00N 48°23' W 004°29'0 0.0
2017-Apr-20 00:30N 48°23' W 004°29'0 0.0
2017-Apr-20 00:00N 48°23' W 004°29'0 0.0
2017-Apr-19 23:30N 48°23' W 004°29'0 0.0
2017-Apr-19 23:00N 48°23' W 004°29'0 0.0
2017-Apr-19 22:30N 48°23' W 004°29'0 0.0
2017-Apr-19 22:00N 48°23' W 004°29'0 0.0
2017-Apr-19 21:30N 48°23' W 004°29'0 0.0
2017-Apr-19 21:00N 48°23' W 004°29'0 0.0
2017-Apr-19 20:30N 48°23' W 004°29'0 0.0
2017-Apr-19 20:00N 48°23' W 004°29'0 0.0
2017-Apr-19 19:30N 48°23' W 004°29'0 0.0
2017-Apr-19 19:00N 48°23' W 004°29'0 0.0
2017-Apr-19 18:30N 48°23' W 004°29'0 0.0
2017-Apr-19 18:00N 48°23' W 004°29'0 0.0
2017-Apr-19 17:30N 48°23' W 004°29'0 0.0
2017-Apr-19 17:00N 48°23' W 004°29'0 0.0
2017-Apr-19 16:30N 48°23' W 004°29'0 0.0
2017-Apr-19 16:00N 48°23' W 004°29'0 0.0
2017-Apr-19 15:30N 48°23' W 004°29'0 0.0
2017-Apr-19 15:00N 48°23' W 004°29'0 0.0
2017-Apr-19 14:30N 48°23' W 004°29'0 0.0
2017-Apr-19 13:30N 48°23' W 004°29'0 0.0
2017-Apr-19 13:00N 48°23' W 004°29'0 0.0
2017-Apr-19 12:30N 48°23' W 004°29'0 0.0
2017-Apr-19 12:00N 48°23' W 004°29'0 0.0
2017-Apr-19 11:30N 48°23' W 004°29'0 0.0
2017-Apr-19 11:00N 48°23' W 004°29'0 0.0
2017-Apr-19 10:30N 48°23' W 004°29'0 0.0
2017-Apr-19 10:00N 48°23' W 004°29'0 0.0
2017-Apr-19 09:30N 48°23' W 004°29'0 0.0
2017-Apr-19 09:00N 48°23' W 004°29'0 0.0
2017-Apr-19 08:30N 48°23' W 004°29'  
Track history (hours):
 
Tides and Currents Weather Stations Pressure Air Temp Water Temp Dewpoint Dewpoint Depression Visibility Wind Speed Wind Dir Waves Ship Positions

Oceanographic research ship Thalassa (France & Spain)

Detailed information on ship capabilities available from University of Delaware's Ocean Information Center.

Last reported at 2017-Apr-29 08:29 UTC. Time now 2017-Apr-30 20:43 UTC.
Position N 45°02' W 001°45'.

Length 74 m; beam 15 m.

Type: Ship. MMSI: 227297000.

Date/timePositionNaut miles runAvg speedWind from/ knotsBaromVisibWave heightAir tempDewpointWater temp
2017-Apr-29 08:29N 45°02' W 001°45'1010.1
2017-Apr-29 07:28N 45°03' W 001°30'2 1.8
2017-Apr-29 06:26N 45°03' W 001°33'1 3.2
2017-Apr-29 05:59N 45°03' W 001°31'610.2
2017-Apr-29 05:25N 45°04' W 001°22'410.1
2017-Apr-29 05:00N 45°04' W 001°17'3 6.6
2017-Apr-29 04:30N 45°01' W 001°15'4 7.4
2017-Apr-29 04:00N 44°57' W 001°16'4 7.4
2017-Apr-29 03:30N 44°54' W 001°17'1 2.8
2017-Apr-29 03:00N 44°52' W 001°17'3 5.2
2017-Apr-29 02:30N 44°52' W 001°21'5 9.6
2017-Apr-29 02:00N 44°52' W 001°27'3 5.4
2017-Apr-29 01:30N 44°52' W 001°31'3 5.6
2017-Apr-29 01:00N 44°52' W 001°35'611.7
2017-Apr-29 00:30N 44°52' W 001°44'3 3.9
2017-Apr-28 23:50N 44°52' W 001°47'1 2.5
2017-Apr-28 23:27N 44°52' W 001°48'8 8.5
2017-Apr-28 22:28N 44°52' W 002°00'8 1.2
2017-Apr-28 15:34N 44°52' W 001°49'110.5
2017-Apr-28 15:30N 44°52' W 001°48'510.3
2017-Apr-28 14:59N 44°52' W 001°40'1010.3
2017-Apr-28 14:00N 44°52' W 001°26'3 6.7
2017-Apr-28 13:30N 44°52' W 001°21'3 5.1
2017-Apr-28 13:00N 44°52' W 001°25'3 5.7
2017-Apr-28 12:31N 44°52' W 001°29'5 9.8
2017-Apr-28 12:00N 44°52' W 001°22'4 8.5
2017-Apr-28 11:30N 44°51' W 001°16'612.1
2017-Apr-28 11:00N 44°45' W 001°17'510.7
2017-Apr-28 10:30N 44°40' W 001°19'510.0
2017-Apr-28 10:00N 44°40' W 001°26'510.0
2017-Apr-28 09:30N 44°40' W 001°33'510.0
2017-Apr-28 09:00N 44°40' W 001°40'5 9.6
2017-Apr-28 08:27N 44°40' W 001°47'2 4.1
2017-Apr-28 07:56N 44°40' W 001°45'2 5.0
2017-Apr-28 07:28N 44°40' W 001°41'0 0.1
2017-Apr-28 07:00N 44°40' W 001°41'12 1.0
2017-Apr-27 18:57N 44°28' W 001°37'3 6.3
2017-Apr-27 18:30N 44°28' W 001°41'6 2.6
2017-Apr-27 16:00N 44°28' W 001°50'17 1.6
2017-Apr-27 05:00N 44°16' W 001°32'1 0.8
2017-Apr-27 03:38N 44°17' W 001°31'5 3.2
2017-Apr-27 01:56N 44°20' W 001°25'2 3.5
2017-Apr-27 01:30N 44°21' W 001°27'3 5.6
2017-Apr-27 01:01N 44°23' W 001°28'2 4.5
2017-Apr-27 00:30N 44°25' W 001°26'2 4.7
2017-Apr-27 00:01N 44°26' W 001°23'2 4.3
2017-Apr-26 23:30N 44°27' W 001°21'2 4.0
2017-Apr-26 23:00N 44°28' W 001°18'1 2.2
2017-Apr-26 22:31N 44°28' W 001°20'3 6.5
2017-Apr-26 22:00N 44°28' W 001°24'3 6.4
2017-Apr-26 21:30N 44°28' W 001°29'1 2.0
2017-Apr-26 21:01N 44°28' W 001°30'2 3.8
2017-Apr-26 20:30N 44°28' W 001°33'4 7.4
2017-Apr-26 20:01N 44°28' W 001°38'4 7.4
2017-Apr-26 19:30N 44°28' W 001°43'1 0.6
2017-Apr-26 18:36N 44°28' W 001°44'5 9.4
2017-Apr-26 18:02N 44°28' W 001°36'010.3
2017-Apr-26 18:00N 44°28' W 001°36'510.3
2017-Apr-26 17:31N 44°28' W 001°29'1 2.5
2017-Apr-26 17:01N 44°28' W 001°27'2 3.6
2017-Apr-26 16:30N 44°28' W 001°29'2 4.3
2017-Apr-26 16:00N 44°28' W 001°32'1 1.1
2017-Apr-26 15:30N 44°28' W 001°33'510.3
2017-Apr-26 15:00N 44°28' W 001°26'4 8.7
2017-Apr-26 14:30N 44°28' W 001°20'5 4.9
2017-Apr-26 13:30N 44°28' W 001°27'1 2.6
2017-Apr-26 13:00N 44°28' W 001°25'5 9.7
2017-Apr-26 12:30N 44°28' W 001°18'5 9.2
2017-Apr-26 12:01N 44°26' W 001°24'611.3
2017-Apr-26 11:27N 44°20' W 001°27'4 8.9
2017-Apr-26 11:00N 44°16' W 001°28'5 4.8
2017-Apr-26 09:54N 44°16' W 001°21'8 2.1
2017-Apr-26 05:54N 44°16' W 001°32'26 1.4
2017-Apr-25 10:43N 43°52' W 001°47'0 1.8
2017-Apr-25 10:29N 43°52' W 001°46'2 4.3
2017-Apr-25 09:59N 43°52' W 001°43'2 4.8
2017-Apr-25 09:30N 43°52' W 001°40'2 3.3
2017-Apr-25 09:00N 43°52' W 001°42'20 3.9
2017-Apr-25 03:53N 43°49' W 002°10'2 4.4
2017-Apr-25 03:31N 43°48' W 002°08'6 5.0
2017-Apr-25 02:24N 43°44' W 002°03'6 2.5
2017-Apr-25 00:04N 43°39' W 001°57'0 7.9
2017-Apr-25 00:00N 43°39' W 001°57'5 8.4
2017-Apr-24 23:28N 43°40' W 001°50'4 8.3
2017-Apr-24 22:58N 43°40' W 001°45'1 2.2
2017-Apr-24 22:30N 43°40' W 001°43'0 0.4
2017-Apr-24 22:01N 43°40' W 001°43'3 6.9
2017-Apr-24 21:30N 43°40' W 001°38'4 8.0
2017-Apr-24 21:00N 43°40' W 001°33'4 7.1
2017-Apr-24 20:31N 43°40' W 001°28'0 0.5
2017-Apr-24 20:00N 43°40' W 001°28'1 1.9
2017-Apr-24 19:30N 43°40' W 001°29'3 5.3
2017-Apr-24 19:00N 43°40' W 001°33'2 3.8
2017-Apr-24 18:30N 43°40' W 001°31'2 4.8
2017-Apr-24 18:00N 43°40' W 001°27'5 9.7
2017-Apr-24 17:30N 43°40' W 001°34'510.3
2017-Apr-24 17:01N 43°40' W 001°41'510.2
2017-Apr-24 16:30N 43°40' W 001°48'510.1
2017-Apr-24 16:00N 43°40' W 001°55'510.2
2017-Apr-24 15:30N 43°40' W 002°02'510.4
2017-Apr-24 15:00N 43°40' W 002°09'510.2
2017-Apr-24 14:30N 43°40' W 002°16'1010.3
2017-Apr-24 13:30N 43°40' W 002°31'510.2
2017-Apr-24 13:00N 43°40' W 002°38'3 6.0
2017-Apr-24 12:27N 43°40' W 002°42'2 3.4
2017-Apr-24 12:00N 43°40' W 002°40'2 4.7
2017-Apr-24 11:29N 43°40' W 002°37'0 1.0
2017-Apr-24 11:00N 43°40' W 002°36'510.3
2017-Apr-24 10:31N 43°40' W 002°43'16 1.0
2017-Apr-23 18:07N 43°42' W 002°21'111.0
2017-Apr-23 18:00N 43°43' W 002°22'511.1
2017-Apr-23 17:30N 43°48' W 002°26'511.0
2017-Apr-23 17:00N 43°53' W 002°29'611.1
2017-Apr-23 16:30N 43°58' W 002°33'510.7
2017-Apr-23 16:00N 44°02' W 002°36'5 9.9
2017-Apr-23 15:30N 44°07' W 002°40'13710.8
2017-Apr-23 02:55N 46°13' W 003°53'812.1
2017-Apr-23 02:16N 46°21' W 003°56'1712.3
2017-Apr-23 00:55N 46°36' W 004°04'712.3
2017-Apr-23 00:19N 46°43' W 004°08'6212.5
2017-Apr-22 19:18N 47°43' W 004°37'412.6
2017-Apr-22 19:00N 47°46' W 004°39'612.8
2017-Apr-22 18:30N 47°52' W 004°41'612.7
2017-Apr-22 18:01N 47°58' W 004°44'612.2
2017-Apr-22 17:31N 48°04' W 004°46'612.9
2017-Apr-22 17:01N 48°11' W 004°43'612.4
2017-Apr-22 16:30N 48°16' W 004°39'3 5.6
2017-Apr-22 16:01N 48°18' W 004°36'0 0.1
2017-Apr-22 15:30N 48°18' W 004°36'0 0.0
2017-Apr-22 15:00N 48°18' W 004°36'0 0.0
2017-Apr-22 14:30N 48°18' W 004°36'0 0.0
2017-Apr-22 13:30N 48°18' W 004°36'0 0.0
2017-Apr-22 13:00N 48°18' W 004°36'0 0.0
2017-Apr-22 12:30N 48°18' W 004°36'0 0.0
2017-Apr-22 12:00N 48°18' W 004°36'0 0.0
2017-Apr-22 11:30N 48°18' W 004°36'0 0.0
2017-Apr-22 11:00N 48°18' W 004°36'0 0.0
2017-Apr-22 10:30N 48°18' W 004°36'0 0.0
2017-Apr-22 10:00N 48°18' W 004°36'0 0.0
2017-Apr-22 09:30N 48°18' W 004°36'0 0.0
2017-Apr-22 09:00N 48°18' W 004°36'0 0.0
2017-Apr-22 08:30N 48°18' W 004°36'0 0.0
2017-Apr-22 08:00N 48°18' W 004°36'0 0.0
2017-Apr-22 07:30N 48°18' W 004°36'0 0.2
2017-Apr-22 07:00N 48°18' W 004°36'4 7.9
2017-Apr-22 06:30N 48°21' W 004°33'3 6.2
2017-Apr-22 06:01N 48°23' W 004°29'0 0.0
2017-Apr-22 05:31N 48°23' W 004°29'0 0.0
2017-Apr-22 04:58N 48°23' W 004°29'0 0.0
2017-Apr-22 04:28N 48°23' W 004°29'0 0.0
2017-Apr-22 03:58N 48°23' W 004°29'0 0.0
2017-Apr-22 03:28N 48°23' W 004°29'0 0.0
2017-Apr-22 02:58N 48°23' W 004°29'0 0.0
2017-Apr-22 02:28N 48°23' W 004°29'0 0.0
2017-Apr-22 01:58N 48°23' W 004°29'0 0.0
2017-Apr-22 01:28N 48°23' W 004°29'0 0.0
2017-Apr-22 00:58N 48°23' W 004°29'0 0.0
2017-Apr-22 00:28N 48°23' W 004°29'0 0.0
2017-Apr-21 23:58N 48°23' W 004°29'0 0.0
2017-Apr-21 23:28N 48°23' W 004°29'0 0.0
2017-Apr-21 22:58N 48°23' W 004°29'0 0.0
2017-Apr-21 22:28N 48°23' W 004°29'0 0.0
2017-Apr-21 21:58N 48°23' W 004°29'0 0.0
2017-Apr-21 21:28N 48°23' W 004°29'0 0.0
2017-Apr-21 20:58N 48°23' W 004°29'0 0.0
2017-Apr-21 20:28N 48°23' W 004°29'0 0.0
2017-Apr-21 19:58N 48°23' W 004°29'0 0.0
2017-Apr-21 19:28N 48°23' W 004°29'0 0.0
2017-Apr-21 18:58N 48°23' W 004°29'0 0.0
2017-Apr-21 18:28N 48°23' W 004°29'0 0.0
2017-Apr-21 17:58N 48°23' W 004°29'0 0.0
2017-Apr-21 17:28N 48°23' W 004°29'0 0.0
2017-Apr-21 16:58N 48°23' W 004°29'0 0.0
2017-Apr-21 16:28N 48°23' W 004°29'0 0.0
2017-Apr-21 15:58N 48°23' W 004°29'0 0.0
2017-Apr-21 15:28N 48°23' W 004°29'0 0.0
2017-Apr-21 14:58N 48°23' W 004°29'0 0.0
2017-Apr-21 14:28N 48°23' W 004°29'0 0.0
2017-Apr-21 13:28N 48°23' W 004°29'0 0.0
2017-Apr-21 12:58N 48°23' W 004°29'0 0.0
2017-Apr-21 12:28N 48°23' W 004°29'0 0.0
2017-Apr-21 11:58N 48°23' W 004°29'0 0.0
2017-Apr-21 11:28N 48°23' W 004°29'0 0.0
2017-Apr-21 10:58N 48°23' W 004°29'0 0.0
2017-Apr-21 10:28N 48°23' W 004°29'0 0.0
2017-Apr-21 09:58N 48°23' W 004°29'0 0.0
2017-Apr-21 09:28N 48°23' W 004°29'0 0.0
2017-Apr-21 08:58N 48°23' W 004°29'0 0.0
2017-Apr-21 08:28N 48°23' W 004°29'0 0.0
2017-Apr-21 07:58N 48°23' W 004°29'0 0.0
2017-Apr-21 07:28N 48°23' W 004°29'0 0.0
2017-Apr-21 06:58N 48°23' W 004°29'0 0.0
2017-Apr-21 06:28N 48°23' W 004°29'0 0.0
2017-Apr-21 05:58N 48°23' W 004°29'0 0.0
2017-Apr-21 05:28N 48°23' W 004°29'0 0.0
2017-Apr-21 05:01N 48°23' W 004°29'0 0.0
2017-Apr-21 04:28N 48°23' W 004°29'0 0.0
2017-Apr-21 03:58N 48°23' W 004°29'0 0.0
2017-Apr-21 03:28N 48°23' W 004°29'0 0.0
2017-Apr-21 03:01N 48°23' W 004°29'0 0.0
2017-Apr-21 02:28N 48°23' W 004°29'0 0.0
2017-Apr-21 02:01N 48°23' W 004°29'0 0.0
2017-Apr-21 01:31N 48°23' W 004°29'0 0.0
2017-Apr-21 01:01N 48°23' W 004°29'0 0.0
2017-Apr-21 00:30N 48°23' W 004°29'0 0.0
2017-Apr-21 00:00N 48°23' W 004°29'0 0.0
2017-Apr-20 23:30N 48°23' W 004°29'0 0.0
2017-Apr-20 23:00N 48°23' W 004°29'0 0.0
2017-Apr-20 22:30N 48°23' W 004°29'0 0.0
2017-Apr-20 22:01N 48°23' W 004°29'0 0.0
2017-Apr-20 21:30N 48°23' W 004°29'0 0.0
2017-Apr-20 21:00N 48°23' W 004°29'0 0.0
2017-Apr-20 20:31N 48°23' W 004°29'0 0.0
2017-Apr-20 20:00N 48°23' W 004°29'0 0.0
2017-Apr-20 19:30N 48°23' W 004°29'0 0.0
2017-Apr-20 19:01N 48°23' W 004°29'0 0.0
2017-Apr-20 18:30N 48°23' W 004°29'0 0.0
2017-Apr-20 18:00N 48°23' W 004°29'0 0.0
2017-Apr-20 17:30N 48°23' W 004°29'0 0.0
2017-Apr-20 17:01N 48°23' W 004°29'0 0.0
2017-Apr-20 16:30N 48°23' W 004°29'0 0.0
2017-Apr-20 16:00N 48°23' W 004°29'0 0.0
2017-Apr-20 15:30N 48°23' W 004°29'0 0.0
2017-Apr-20 15:00N 48°23' W 004°29'0 0.0
2017-Apr-20 14:30N 48°23' W 004°29'0 0.0
2017-Apr-20 13:30N 48°23' W 004°29'0 0.0
2017-Apr-20 13:00N 48°23' W 004°29'0 0.0
2017-Apr-20 12:30N 48°23' W 004°29'0 0.0
2017-Apr-20 12:00N 48°23' W 004°29'0 0.0
2017-Apr-20 11:30N 48°23' W 004°29'0 0.0
2017-Apr-20 11:00N 48°23' W 004°29'0 0.0
2017-Apr-20 10:30N 48°23' W 004°29'0 0.0
2017-Apr-20 10:00N 48°23' W 004°29'0 0.0
2017-Apr-20 09:30N 48°23' W 004°29'0 0.0
2017-Apr-20 09:00N 48°23' W 004°29'0 0.0
2017-Apr-20 08:30N 48°23' W 004°29'0 0.0
2017-Apr-20 08:00N 48°23' W 004°29'0 0.0
2017-Apr-20 07:30N 48°23' W 004°29'0 0.0
2017-Apr-20 07:00N 48°23' W 004°29'0 0.0
2017-Apr-20 06:30N 48°23' W 004°29'0 0.0
2017-Apr-20 06:00N 48°23' W 004°29'0 0.0
2017-Apr-20 05:30N 48°23' W 004°29'0 0.0
2017-Apr-20 05:00N 48°23' W 004°29'0 0.0
2017-Apr-20 04:30N 48°23' W 004°29'0 0.0
2017-Apr-20 04:00N 48°23' W 004°29'0 0.0
2017-Apr-20 03:30N 48°23' W 004°29'0 0.0
2017-Apr-20 03:00N 48°23' W 004°29'0 0.0
2017-Apr-20 02:30N 48°23' W 004°29'0 0.0
2017-Apr-20 02:00N 48°23' W 004°29'0 0.0
2017-Apr-20 01:30N 48°23' W 004°29'0 0.0
2017-Apr-20 01:00N 48°23' W 004°29'0 0.0
2017-Apr-20 00:30N 48°23' W 004°29'0 0.0
2017-Apr-20 00:00N 48°23' W 004°29'0 0.0
2017-Apr-19 23:30N 48°23' W 004°29'0 0.0
2017-Apr-19 23:00N 48°23' W 004°29'0 0.0
2017-Apr-19 22:30N 48°23' W 004°29'0 0.0
2017-Apr-19 22:00N 48°23' W 004°29'0 0.0
2017-Apr-19 21:30N 48°23' W 004°29'0 0.0
2017-Apr-19 21:00N 48°23' W 004°29'0 0.0
2017-Apr-19 20:30N 48°23' W 004°29'0 0.0
2017-Apr-19 20:00N 48°23' W 004°29'0 0.0
2017-Apr-19 19:30N 48°23' W 004°29'0 0.0
2017-Apr-19 19:00N 48°23' W 004°29'0 0.0
2017-Apr-19 18:30N 48°23' W 004°29'0 0.0
2017-Apr-19 18:00N 48°23' W 004°29'0 0.0
2017-Apr-19 17:30N 48°23' W 004°29'0 0.0
2017-Apr-19 17:00N 48°23' W 004°29'0 0.0
2017-Apr-19 16:30N 48°23' W 004°29'0 0.0
2017-Apr-19 16:00N 48°23' W 004°29'0 0.0
2017-Apr-19 15:30N 48°23' W 004°29'0 0.0
2017-Apr-19 15:00N 48°23' W 004°29'0 0.0
2017-Apr-19 14:30N 48°23' W 004°29'0 0.0
2017-Apr-19 13:30N 48°23' W 004°29'0 0.0
2017-Apr-19 13:00N 48°23' W 004°29'0 0.0
2017-Apr-19 12:30N 48°23' W 004°29'0 0.0
2017-Apr-19 12:00N 48°23' W 004°29'0 0.0
2017-Apr-19 11:30N 48°23' W 004°29'0 0.0
2017-Apr-19 11:00N 48°23' W 004°29'0 0.0
2017-Apr-19 10:30N 48°23' W 004°29'0 0.0
2017-Apr-19 10:00N 48°23' W 004°29'0 0.0
2017-Apr-19 09:30N 48°23' W 004°29'0 0.0
2017-Apr-19 09:00N 48°23' W 004°29'0 0.0
2017-Apr-19 08:30N 48°23' W 004°29'  

Dump ship's entire track history